createdAt,value
2022-11-05T00:00:09.243Z,3.10
2022-11-05T00:02:56.078Z,3.00
2022-11-05T00:05:41.578Z,2.93
2022-11-05T00:08:27.241Z,3.10
2022-11-05T00:10:55.537Z,3.00
2022-11-05T00:13:40.778Z,2.93
2022-11-05T00:16:26.696Z,3.37
2022-11-05T00:19:07.344Z,2.97
2022-11-05T00:21:50.148Z,3.07
2022-11-05T00:24:41.032Z,3.03
2022-11-05T00:27:09.872Z,2.93
2022-11-05T00:29:38.007Z,2.83
2022-11-05T00:32:06.289Z,3.30
2022-11-05T00:34:35.623Z,3.43
2022-11-05T00:37:03.570Z,3.10
2022-11-05T00:39:31.533Z,3.10
2022-11-05T00:42:16.840Z,3.30
2022-11-05T00:45:03.094Z,3.20
2022-11-05T00:47:49.617Z,3.37
2022-11-05T00:50:19.744Z,3.07
2022-11-05T00:52:57.431Z,2.97
2022-11-05T00:55:28.249Z,3.17
2022-11-05T00:57:57.200Z,2.90
2022-11-05T01:00:26.714Z,3.10
2022-11-05T01:02:54.807Z,2.93
2022-11-05T01:05:24.224Z,3.10
2022-11-05T01:07:53.476Z,3.43
2022-11-05T01:10:21.658Z,3.47
2022-11-05T01:12:49.680Z,3.93
2022-11-05T01:15:18.448Z,3.50
2022-11-05T01:17:46.431Z,3.23
2022-11-05T01:20:14.688Z,3.43
2022-11-05T01:22:44.193Z,3.10
2022-11-05T01:25:12.203Z,3.30
2022-11-05T01:27:40.420Z,3.00
2022-11-05T01:30:10.079Z,3.40
2022-11-05T01:32:38.889Z,3.20
2022-11-05T01:35:08.095Z,2.97
2022-11-05T01:37:36.238Z,3.37
2022-11-05T01:40:06.593Z,3.30
2022-11-05T01:42:35.204Z,3.03
2022-11-05T01:45:12.376Z,3.27
2022-11-05T01:47:46.950Z,3.37
2022-11-05T01:50:24.979Z,3.00
2022-11-05T01:52:58.816Z,3.93
2022-11-05T01:55:32.507Z,2.87
2022-11-05T01:58:03.943Z,3.00
2022-11-05T02:00:32.185Z,3.10
2022-11-05T02:03:00.349Z,3.10
2022-11-05T02:05:28.597Z,3.47
2022-11-05T02:07:56.994Z,3.13
2022-11-05T02:10:25.704Z,2.80
2022-11-05T02:12:55.113Z,3.40
2022-11-05T02:15:28.650Z,3.67
2022-11-05T02:18:10.000Z,3.27
2022-11-05T02:20:51.826Z,3.43
2022-11-05T02:23:54.737Z,3.17
2022-11-05T02:26:52.382Z,4.07
2022-11-05T02:30:17.439Z,3.53
2022-11-05T02:33:09.629Z,3.40
2022-11-05T02:36:02.205Z,3.43
2022-11-05T02:38:40.250Z,3.83
2022-11-05T02:41:15.991Z,3.37
2022-11-05T02:43:55.635Z,4.43
2022-11-05T02:46:34.991Z,3.40
2022-11-05T02:49:14.483Z,3.70
2022-11-05T02:51:48.376Z,4.07
2022-11-05T02:54:21.450Z,3.80
2022-11-05T02:56:53.670Z,3.70
2022-11-05T02:59:21.645Z,3.73
2022-11-05T03:01:50.494Z,3.80
2022-11-05T03:04:22.820Z,3.53
2022-11-05T03:07:16.108Z,4.60
2022-11-05T03:10:16.642Z,4.07
2022-11-05T03:13:00.948Z,3.60
2022-11-05T03:15:44.931Z,3.63
2022-11-05T03:18:19.498Z,3.80
2022-11-05T03:20:52.483Z,3.60
2022-11-05T03:23:28.936Z,3.60
2022-11-05T03:26:03.470Z,3.73
2022-11-05T03:28:36.373Z,3.90
2022-11-05T03:31:07.146Z,3.27
2022-11-05T03:33:38.425Z,4.17
2022-11-05T03:36:13.966Z,3.77
2022-11-05T03:38:45.668Z,3.20
2022-11-05T03:41:16.764Z,3.40
2022-11-05T03:43:48.555Z,3.70
2022-11-05T03:46:22.552Z,3.60
2022-11-05T03:48:55.405Z,3.87
2022-11-05T03:51:31.579Z,4.00
2022-11-05T03:54:02.673Z,3.50
2022-11-05T03:56:36.831Z,3.70
2022-11-05T03:59:07.592Z,3.67
2022-11-05T04:01:38.445Z,3.60
2022-11-05T04:04:07.259Z,3.30
2022-11-05T04:06:53.916Z,3.13
2022-11-05T04:09:39.330Z,3.30
2022-11-05T04:12:25.305Z,3.37
2022-11-05T04:14:53.332Z,3.20
2022-11-05T04:17:20.312Z,3.40
2022-11-05T04:20:05.745Z,3.17
2022-11-05T04:22:54.036Z,3.53
2022-11-05T04:25:22.778Z,3.13
2022-11-05T04:27:50.892Z,3.27
2022-11-05T04:30:19.527Z,2.97
2022-11-05T04:33:02.176Z,3.40
2022-11-05T04:35:32.294Z,3.00
2022-11-05T04:38:01.718Z,3.17
2022-11-05T04:40:30.424Z,3.67
2022-11-05T04:42:58.856Z,3.00
2022-11-05T04:45:28.745Z,3.53
2022-11-05T04:47:56.871Z,3.67
2022-11-05T04:50:24.889Z,3.20
2022-11-05T04:52:52.939Z,3.20
2022-11-05T04:55:22.452Z,3.13
2022-11-05T04:57:51.123Z,3.27
2022-11-05T05:00:20.200Z,3.17
2022-11-05T05:02:48.622Z,3.23
2022-11-05T05:05:16.787Z,3.07
2022-11-05T05:07:44.752Z,3.23
2022-11-05T05:10:13.253Z,3.20
2022-11-05T05:12:42.588Z,2.93
2022-11-05T05:15:10.673Z,3.23
2022-11-05T05:17:38.643Z,2.87
2022-11-05T05:20:24.538Z,3.13
2022-11-05T05:22:53.965Z,3.67
2022-11-05T05:25:22.272Z,3.03
2022-11-05T05:27:51.862Z,3.00
2022-11-05T05:30:20.012Z,3.00
2022-11-05T05:32:47.993Z,3.30
2022-11-05T05:35:16.479Z,3.30
2022-11-05T05:37:44.551Z,3.30
2022-11-05T05:40:12.994Z,2.80
2022-11-05T05:42:43.400Z,2.70
2022-11-05T05:45:13.513Z,3.20
2022-11-05T05:47:41.468Z,2.83
2022-11-05T05:50:09.746Z,3.00
2022-11-05T05:52:37.748Z,2.70
2022-11-05T05:55:06.313Z,3.00
2022-11-05T05:57:35.160Z,3.00
2022-11-05T06:00:03.219Z,2.70
2022-11-05T06:02:33.201Z,2.60
2022-11-05T06:05:01.471Z,2.97
2022-11-05T06:07:33.131Z,3.03
2022-11-05T06:10:05.600Z,2.70
2022-11-05T06:12:33.787Z,2.77
2022-11-05T06:15:01.772Z,2.70
2022-11-05T06:17:29.738Z,2.70
2022-11-05T06:19:59.079Z,2.50
2022-11-05T06:22:27.016Z,2.20
2022-11-05T06:24:55.015Z,2.40
2022-11-05T06:27:22.986Z,2.40
2022-11-05T06:29:50.940Z,2.67
2022-11-05T06:32:18.922Z,2.50
2022-11-05T06:34:46.883Z,2.60
2022-11-05T06:37:16.413Z,2.40
2022-11-05T06:39:44.385Z,2.70
2022-11-05T06:42:18.497Z,2.47
2022-11-05T06:44:46.900Z,2.60
2022-11-05T06:47:14.892Z,2.63
2022-11-05T06:49:42.893Z,2.80
2022-11-05T06:52:10.855Z,2.70
2022-11-05T06:54:40.834Z,2.70
2022-11-05T06:57:09.933Z,3.43
2022-11-05T06:59:38.128Z,2.60
2022-11-05T07:02:06.610Z,2.73
2022-11-05T07:04:34.784Z,2.70
2022-11-05T07:07:02.754Z,2.47
2022-11-05T07:09:30.861Z,2.67
2022-11-05T07:12:00.165Z,2.60
2022-11-05T07:14:28.193Z,2.30
2022-11-05T07:16:58.020Z,2.67
2022-11-05T07:19:25.971Z,2.97
2022-11-05T07:21:53.902Z,2.50
2022-11-05T07:24:21.879Z,2.57
2022-11-05T07:26:49.863Z,2.40
2022-11-05T07:29:19.212Z,2.83
2022-11-05T07:31:47.967Z,2.90
2022-11-05T07:34:15.938Z,2.87
2022-11-05T07:36:43.920Z,2.60
2022-11-05T07:39:11.986Z,2.83
2022-11-05T07:41:39.946Z,2.60
2022-11-05T07:44:08.306Z,2.60
2022-11-05T07:46:37.639Z,2.80
2022-11-05T07:49:05.634Z,2.37
2022-11-05T07:51:33.648Z,2.97
2022-11-05T07:54:01.746Z,2.87
2022-11-05T07:56:29.727Z,2.90
2022-11-05T07:58:57.777Z,3.00
2022-11-05T08:01:25.913Z,3.23
2022-11-05T08:03:55.420Z,3.20
2022-11-05T08:06:23.394Z,3.57
2022-11-05T08:08:51.379Z,3.30
2022-11-05T08:11:19.927Z,3.17
2022-11-05T08:13:47.971Z,3.03
2022-11-05T08:16:15.936Z,2.90
2022-11-05T08:18:44.645Z,3.10
2022-11-05T08:21:14.031Z,3.07
2022-11-05T08:23:42.974Z,3.57
2022-11-05T08:26:11.612Z,2.97
2022-11-05T08:28:39.612Z,3.23
2022-11-05T08:31:07.664Z,3.37
2022-11-05T08:33:35.706Z,3.23
2022-11-05T08:36:04.325Z,3.00
2022-11-05T08:38:33.646Z,3.37
2022-11-05T08:41:01.647Z,3.20
2022-11-05T08:43:29.667Z,3.83
2022-11-05T08:45:57.690Z,3.20
2022-11-05T08:48:25.701Z,3.00
2022-11-05T08:50:53.874Z,3.67
2022-11-05T08:53:21.972Z,3.33
2022-11-05T08:55:51.630Z,3.13
2022-11-05T08:58:20.800Z,3.20
2022-11-05T09:00:50.720Z,3.40
2022-11-05T09:03:19.075Z,3.37
2022-11-05T09:05:47.529Z,3.03
2022-11-05T09:08:17.039Z,3.47
2022-11-05T09:10:46.041Z,3.40
2022-11-05T09:13:19.372Z,3.77
2022-11-05T09:15:48.491Z,3.23
2022-11-05T09:18:16.933Z,3.10
2022-11-05T09:20:45.240Z,3.30
2022-11-05T09:23:15.174Z,3.47
2022-11-05T09:25:43.273Z,2.93
2022-11-05T09:28:16.921Z,2.97
2022-11-05T09:30:48.578Z,2.90
2022-11-05T09:33:17.565Z,2.90
2022-11-05T09:35:45.777Z,3.63
2022-11-05T09:38:14.108Z,3.60
2022-11-05T09:40:56.578Z,3.47
2022-11-05T09:43:31.919Z,2.80
2022-11-05T09:46:05.616Z,3.07
2022-11-05T09:48:34.999Z,2.87
2022-11-05T09:51:04.931Z,3.10
2022-11-05T09:53:33.205Z,3.33
2022-11-05T09:56:01.996Z,3.40
2022-11-05T09:58:38.919Z,2.83
2022-11-05T10:01:14.249Z,3.20
2022-11-05T10:03:47.061Z,2.90
2022-11-05T10:06:22.045Z,2.97
2022-11-05T10:08:53.821Z,3.03
2022-11-05T10:11:25.920Z,2.80
2022-11-05T10:13:58.000Z,2.90
2022-11-05T10:16:31.826Z,3.60
2022-11-05T10:19:06.154Z,2.80
2022-11-05T10:22:04.477Z,3.00
2022-11-05T10:24:22.735Z,2.80
2022-11-05T10:26:53.531Z,2.57
2022-11-05T10:29:27.464Z,2.80
2022-11-05T10:31:58.085Z,2.60
2022-11-05T10:34:29.787Z,2.60
2022-11-05T10:36:57.879Z,2.30
2022-11-05T10:39:27.654Z,2.60
2022-11-05T10:42:15.864Z,2.30
2022-11-05T10:44:48.858Z,2.53
2022-11-05T10:47:51.301Z,2.47
2022-11-05T10:50:22.426Z,2.60
2022-11-05T10:52:58.070Z,2.37
2022-11-05T10:55:29.525Z,2.30
2022-11-05T10:58:09.830Z,2.97
2022-11-05T11:00:38.348Z,2.30
2022-11-05T11:03:35.380Z,2.63
2022-11-05T11:06:07.629Z,2.37
2022-11-05T11:08:37.651Z,2.40
2022-11-05T11:11:08.989Z,2.57
2022-11-05T11:13:59.408Z,2.10
2022-11-05T11:16:29.451Z,2.60
2022-11-05T11:19:00.911Z,2.80
2022-11-05T11:21:30.477Z,2.07
2022-11-05T11:24:00.492Z,2.43
2022-11-05T11:26:32.236Z,2.23
2022-11-05T11:29:02.021Z,2.53
2022-11-05T11:31:32.283Z,3.27
2022-11-05T11:34:05.337Z,2.80
2022-11-05T11:36:36.738Z,2.57
2022-11-05T11:39:06.523Z,2.80
2022-11-05T11:41:37.641Z,2.70
2022-11-05T11:44:11.497Z,2.93
2022-11-05T11:46:39.890Z,2.57
2022-11-05T11:49:32.018Z,2.57
2022-11-05T11:52:03.510Z,2.60
2022-11-05T11:54:33.855Z,2.70
2022-11-05T11:57:01.900Z,2.37
2022-11-05T12:00:02.011Z,3.07
2022-11-05T12:03:11.790Z,2.63
2022-11-05T12:05:48.527Z,2.60
2022-11-05T12:08:45.256Z,2.20
2022-11-05T12:11:19.382Z,2.37
2022-11-05T12:14:11.123Z,2.50
2022-11-05T12:17:05.291Z,2.40
2022-11-05T12:19:45.767Z,2.70
2022-11-05T12:22:28.440Z,2.57
2022-11-05T12:25:22.536Z,3.67
2022-11-05T12:28:30.604Z,3.03
2022-11-05T12:31:06.800Z,2.77
2022-11-05T12:33:47.910Z,2.80
2022-11-05T12:36:27.657Z,2.90
2022-11-05T12:39:09.601Z,3.60
2022-11-05T12:41:47.383Z,3.20
2022-11-05T12:44:28.707Z,2.87
2022-11-05T12:47:11.044Z,2.97
2022-11-05T12:50:12.437Z,2.80
2022-11-05T12:53:06.535Z,2.90
2022-11-05T12:55:44.112Z,3.13
2022-11-05T12:58:23.477Z,2.77
2022-11-05T13:00:58.035Z,2.97
2022-11-05T13:03:32.033Z,3.10
2022-11-05T13:06:06.045Z,2.63
2022-11-05T13:08:40.904Z,2.67
2022-11-05T13:11:17.655Z,2.53
2022-11-05T13:13:52.049Z,2.40
2022-11-05T13:16:27.998Z,2.40
2022-11-05T13:19:00.105Z,2.80
2022-11-05T13:21:30.058Z,2.07
2022-11-05T13:24:04.814Z,1.93
2022-11-05T13:26:38.505Z,2.00
2022-11-05T13:29:10.343Z,2.37
2022-11-05T13:31:42.922Z,2.93
2022-11-05T13:34:13.659Z,1.90
2022-11-05T13:37:08.391Z,1.83
2022-11-05T13:39:42.533Z,2.30
2022-11-05T13:43:02.229Z,2.30
2022-11-05T13:46:04.442Z,2.53
2022-11-05T13:48:54.251Z,2.10
2022-11-05T13:51:51.015Z,2.27
2022-11-05T13:54:54.659Z,2.20
2022-11-05T13:57:49.718Z,2.10
2022-11-05T14:00:21.069Z,2.13
2022-11-05T14:02:53.329Z,2.23
2022-11-05T14:05:29.701Z,2.27
2022-11-05T14:08:00.178Z,2.20
2022-11-05T14:10:37.815Z,2.40
2022-11-05T14:13:21.826Z,2.03
2022-11-05T14:16:01.704Z,2.60
2022-11-05T14:18:39.421Z,2.47
2022-11-05T14:21:30.401Z,2.47
2022-11-05T14:23:59.929Z,2.43
2022-11-05T14:26:29.003Z,2.60
2022-11-05T14:29:41.367Z,2.90
2022-11-05T14:32:28.081Z,2.50
2022-11-05T14:35:03.963Z,2.70
2022-11-05T14:37:36.878Z,2.50
2022-11-05T14:40:32.396Z,2.53
2022-11-05T14:43:03.103Z,2.23
2022-11-05T14:45:36.277Z,2.70
2022-11-05T14:48:07.176Z,2.67
2022-11-05T14:50:38.854Z,2.67
2022-11-05T14:53:27.734Z,3.00
2022-11-05T14:56:02.757Z,2.50
2022-11-05T14:58:36.713Z,2.60
2022-11-05T15:01:07.684Z,2.70
2022-11-05T15:03:47.101Z,2.70
2022-11-05T15:06:34.844Z,2.43
2022-11-05T15:09:24.256Z,2.77
2022-11-05T15:12:18.486Z,2.30
2022-11-05T15:14:55.911Z,2.97
2022-11-05T15:17:29.993Z,2.60
2022-11-05T15:20:09.402Z,2.97
2022-11-05T15:22:41.756Z,2.60
2022-11-05T15:25:18.760Z,2.80
2022-11-05T15:28:05.818Z,3.03
2022-11-05T15:30:34.007Z,3.20
2022-11-05T15:33:22.289Z,2.87
2022-11-05T15:35:50.319Z,2.77
2022-11-05T15:38:34.884Z,2.90
2022-11-05T15:41:04.545Z,3.00
2022-11-05T15:43:32.592Z,2.80
2022-11-05T15:46:02.798Z,2.97
2022-11-05T15:48:33.149Z,2.63
2022-11-05T15:51:01.360Z,2.40
2022-11-05T15:53:56.124Z,2.67
2022-11-05T15:56:26.901Z,2.43
2022-11-05T15:58:59.638Z,2.70
2022-11-05T16:01:29.894Z,2.73
2022-11-05T16:04:04.536Z,2.87
2022-11-05T16:06:39.886Z,2.60
2022-11-05T16:09:08.820Z,2.53
2022-11-05T16:11:36.803Z,2.90
2022-11-05T16:14:16.034Z,3.07
2022-11-05T16:16:45.189Z,3.27
2022-11-05T16:19:46.351Z,3.00
2022-11-05T16:22:14.536Z,3.00
2022-11-05T16:24:42.930Z,2.97
2022-11-05T16:27:19.129Z,3.13
2022-11-05T16:29:53.396Z,3.10
2022-11-05T16:32:30.243Z,3.10
2022-11-05T16:35:02.592Z,3.10
2022-11-05T16:37:37.730Z,3.27
2022-11-05T16:40:14.055Z,3.20
2022-11-05T16:42:42.746Z,3.40
2022-11-05T16:45:13.978Z,3.60
2022-11-05T16:47:42.945Z,3.60
2022-11-05T16:50:18.757Z,3.47
2022-11-05T16:52:47.319Z,3.90
2022-11-05T16:55:16.698Z,3.80
2022-11-05T16:57:46.741Z,3.57
2022-11-05T17:00:17.283Z,4.17
2022-11-05T17:02:45.481Z,4.20
2022-11-05T17:05:21.032Z,4.80
2022-11-05T17:07:49.235Z,4.50
2022-11-05T17:10:18.183Z,4.67
2022-11-05T17:12:46.501Z,4.50
2022-11-05T17:15:20.279Z,5.03
2022-11-05T17:17:48.556Z,5.13
2022-11-05T17:20:35.122Z,4.80
2022-11-05T17:23:07.575Z,4.73
2022-11-05T17:25:36.059Z,5.50
2022-11-05T17:28:04.962Z,5.10
2022-11-05T17:30:32.957Z,4.63
2022-11-05T17:33:01.041Z,4.50
2022-11-05T17:35:30.412Z,5.13
2022-11-05T17:37:58.695Z,5.10
2022-11-05T17:40:28.372Z,5.20
2022-11-05T17:42:56.370Z,5.30
2022-11-05T17:45:24.316Z,5.23
2022-11-05T17:47:52.314Z,5.13
2022-11-05T17:50:20.429Z,5.10
2022-11-05T17:52:49.788Z,5.30
2022-11-05T17:55:17.791Z,5.50
2022-11-05T17:57:47.628Z,5.10
2022-11-05T18:00:17.490Z,5.03
2022-11-05T18:02:46.178Z,5.33
2022-11-05T18:05:14.434Z,5.27
2022-11-05T18:07:42.879Z,5.57
2022-11-05T18:10:12.656Z,5.73
2022-11-05T18:12:41.199Z,5.47
2022-11-05T18:15:10.059Z,5.47
2022-11-05T18:17:38.209Z,5.37
2022-11-05T18:20:11.599Z,6.10
2022-11-05T18:22:43.156Z,5.53
2022-11-05T18:25:14.155Z,5.40
2022-11-05T18:27:42.651Z,5.90
2022-11-05T18:30:13.984Z,5.27
2022-11-05T18:32:42.059Z,5.80
2022-11-05T18:35:11.061Z,5.73
2022-11-05T18:37:39.924Z,5.83
2022-11-05T18:40:08.941Z,5.90
2022-11-05T18:42:38.301Z,5.60
2022-11-05T18:45:08.077Z,5.87
2022-11-05T18:47:36.226Z,6.30
2022-11-05T18:50:05.337Z,6.60
2022-11-05T18:52:33.565Z,6.47
2022-11-05T18:55:01.521Z,6.23
2022-11-05T18:57:29.505Z,6.23
2022-11-05T18:59:58.826Z,6.83
2022-11-05T19:02:26.946Z,6.03
2022-11-05T19:05:26.901Z,6.17
2022-11-05T19:07:42.989Z,6.47
2022-11-05T19:10:11.023Z,6.47
2022-11-05T19:12:38.987Z,6.07
2022-11-05T19:15:09.926Z,6.50
2022-11-05T19:17:37.899Z,6.23
2022-11-05T19:20:07.333Z,6.57
2022-11-05T19:22:35.360Z,6.73
2022-11-05T19:25:03.340Z,6.20
2022-11-05T19:27:31.620Z,6.87
2022-11-05T19:29:59.602Z,6.83
2022-11-05T19:32:28.958Z,7.10
2022-11-05T19:34:56.910Z,6.87
2022-11-05T19:37:24.906Z,7.17
2022-11-05T19:39:52.894Z,6.60
2022-11-05T19:42:20.878Z,7.07
2022-11-05T19:44:48.839Z,7.07
2022-11-05T19:47:16.825Z,7.17
2022-11-05T19:49:46.202Z,7.63
2022-11-05T19:52:14.177Z,7.23
2022-11-05T19:54:42.343Z,6.20
2022-11-05T19:57:10.298Z,7.30
2022-11-05T19:59:38.277Z,6.90
2022-11-05T20:02:09.362Z,6.83
2022-11-05T20:04:39.870Z,6.40
2022-11-05T20:07:09.348Z,6.63
2022-11-05T20:09:37.304Z,6.87
2022-11-05T20:12:05.432Z,6.63
2022-11-05T20:14:33.415Z,6.00
2022-11-05T20:17:01.370Z,6.67
2022-11-05T20:19:29.365Z,6.80
2022-11-05T20:22:00.591Z,6.47
2022-11-05T20:24:29.968Z,6.83
2022-11-05T20:26:58.033Z,5.97
2022-11-05T20:29:33.673Z,6.23
2022-11-05T20:32:04.205Z,6.37
2022-11-05T20:34:33.318Z,6.43
2022-11-05T20:37:01.672Z,6.17
2022-11-05T20:39:31.247Z,5.90
2022-11-05T20:42:00.479Z,5.73
2022-11-05T20:44:28.831Z,5.80
2022-11-05T20:46:56.839Z,6.03
2022-11-05T20:49:25.838Z,5.80
2022-11-05T20:51:54.402Z,5.83
2022-11-05T20:54:22.406Z,5.87
2022-11-05T20:56:51.830Z,5.40
2022-11-05T20:59:20.491Z,5.80
2022-11-05T21:01:48.641Z,6.27
2022-11-05T21:04:16.632Z,5.97
2022-11-05T21:06:44.580Z,5.77
2022-11-05T21:09:13.066Z,6.03
2022-11-05T21:11:58.399Z,6.53
2022-11-05T21:14:27.712Z,6.53
2022-11-05T21:16:55.809Z,6.37
2022-11-05T21:19:24.395Z,6.70
2022-11-05T21:21:52.380Z,7.30
2022-11-05T21:24:20.346Z,6.70
2022-11-05T21:26:49.923Z,8.40
2022-11-05T21:29:18.966Z,7.83
2022-11-05T21:31:48.728Z,8.97
2022-11-05T21:34:17.776Z,8.43
2022-11-05T21:36:47.116Z,7.93
2022-11-05T21:39:15.278Z,8.57
2022-11-05T21:41:43.632Z,9.13
2022-11-05T21:44:11.639Z,9.00
2022-11-05T21:46:39.765Z,9.43
2022-11-05T21:49:09.359Z,9.03
2022-11-05T21:51:54.819Z,8.90
2022-11-05T21:54:40.334Z,9.07
2022-11-05T21:57:31.948Z,8.73
2022-11-05T22:00:00.691Z,9.17
2022-11-05T22:02:29.530Z,9.37
2022-11-05T22:05:00.087Z,10.17
2022-11-05T22:07:29.880Z,8.73
2022-11-05T22:09:57.882Z,9.67
2022-11-05T22:12:26.681Z,9.73
2022-11-05T22:14:55.178Z,9.10
2022-11-05T22:17:23.212Z,9.73
2022-11-05T22:19:51.255Z,9.30
2022-11-05T22:22:20.785Z,8.97
2022-11-05T22:24:48.744Z,8.77
2022-11-05T22:27:21.384Z,9.33
2022-11-05T22:29:49.738Z,9.43
2022-11-05T22:32:18.273Z,9.87
2022-11-05T22:34:46.240Z,9.13
2022-11-05T22:37:14.276Z,9.43
2022-11-05T22:39:43.640Z,10.00
2022-11-05T22:42:11.851Z,9.80
2022-11-05T22:44:39.894Z,10.43
2022-11-05T22:47:07.927Z,9.80
2022-11-05T22:49:36.007Z,10.47
2022-11-05T22:52:04.039Z,10.07
2022-11-05T22:54:37.959Z,9.60
2022-11-05T22:57:08.655Z,9.27
2022-11-05T22:59:36.720Z,9.10
2022-11-05T23:02:09.471Z,10.37
2022-11-05T23:04:38.195Z,10.43
2022-11-05T23:07:27.589Z,9.77
2022-11-05T23:10:14.272Z,10.00
2022-11-05T23:12:44.597Z,10.00
2022-11-05T23:15:34.406Z,10.10
2022-11-05T23:18:19.807Z,9.80
2022-11-05T23:21:05.203Z,9.93
2022-11-05T23:23:50.708Z,9.80
2022-11-05T23:26:35.533Z,9.73
2022-11-05T23:29:05.043Z,9.90
2022-11-05T23:31:50.603Z,9.20
2022-11-05T23:34:18.609Z,9.10
2022-11-05T23:37:04.089Z,10.30
2022-11-05T23:39:32.113Z,9.70
2022-11-05T23:42:17.462Z,9.73
2022-11-05T23:45:04.241Z,9.07
2022-11-05T23:47:49.690Z,8.87
2022-11-05T23:50:17.868Z,9.67
2022-11-05T23:52:45.913Z,8.47
2022-11-05T23:55:13.921Z,8.67
2022-11-05T23:57:41.906Z,8.53
